sensor_id;sensor_type;location;lat;lon;timestamp;pressure;altitude;pressure_sealevel;temperature;humidity
10167;BME280;62970;53.130;8.244;2023-02-19T00:00:26;101470.16;;;5.56;73.92
10167;BME280;62970;53.130;8.244;2023-02-19T00:02:58;101452.84;;;5.47;74.31
10167;BME280;62970;53.130;8.244;2023-02-19T00:05:28;101463.16;;;5.41;74.03
10167;BME280;62970;53.130;8.244;2023-02-19T00:08:00;101453.59;;;5.34;74.52
10167;BME280;62970;53.130;8.244;2023-02-19T00:10:30;101463.88;;;5.29;74.84
10167;BME280;62970;53.130;8.244;2023-02-19T00:13:00;101462.97;;;5.26;74.91
10167;BME280;62970;53.130;8.244;2023-02-19T00:15:31;101465.53;;;5.21;74.73
10167;BME280;62970;53.130;8.244;2023-02-19T00:18:07;101460.34;;;5.18;75.03
10167;BME280;62970;53.130;8.244;2023-02-19T00:20:36;101462.06;;;5.18;75.35
10167;BME280;62970;53.130;8.244;2023-02-19T00:23:05;101463.75;;;5.14;74.93
10167;BME280;62970;53.130;8.244;2023-02-19T00:25:36;101466.28;;;5.10;75.36
10167;BME280;62970;53.130;8.244;2023-02-19T00:28:05;101453.28;;;5.03;75.04
10167;BME280;62970;53.130;8.244;2023-02-19T00:30:37;101454.94;;;4.95;75.73
10167;BME280;62970;53.130;8.244;2023-02-19T00:33:11;101454.84;;;4.88;75.96
10167;BME280;62970;53.130;8.244;2023-02-19T00:35:42;101455.66;;;4.81;76.41
10167;BME280;62970;53.130;8.244;2023-02-19T00:38:13;101462.41;;;4.72;76.78
10167;BME280;62970;53.130;8.244;2023-02-19T00:40:42;101465.81;;;4.68;77.16
10167;BME280;62970;53.130;8.244;2023-02-19T00:43:11;101462.28;;;4.62;76.78
10167;BME280;62970;53.130;8.244;2023-02-19T00:45:42;101458.78;;;4.57;77.51
10167;BME280;62970;53.130;8.244;2023-02-19T00:48:15;101472.47;;;4.50;78.32
10167;BME280;62970;53.130;8.244;2023-02-19T00:50:45;101475.03;;;4.48;77.94
10167;BME280;62970;53.130;8.244;2023-02-19T00:53:14;101468.13;;;4.46;78.26
10167;BME280;62970;53.130;8.244;2023-02-19T00:55:49;101453.50;;;4.46;78.58
10167;BME280;62970;53.130;8.244;2023-02-19T00:58:18;101456.06;;;4.46;78.41
10167;BME280;62970;53.130;8.244;2023-02-19T01:00:48;101461.22;;;4.45;78.69
10167;BME280;62970;53.130;8.244;2023-02-19T01:03:22;101466.38;;;4.45;79.32
10167;BME280;62970;53.130;8.244;2023-02-19T01:05:55;101466.38;;;4.45;78.97
10167;BME280;62970;53.130;8.244;2023-02-19T01:08:26;101474.16;;;4.46;79.46
10167;BME280;62970;53.130;8.244;2023-02-19T01:10:57;101479.31;;;4.46;79.31
10167;BME280;62970;53.130;8.244;2023-02-19T01:13:27;101486.19;;;4.44;79.33
10167;BME280;62970;53.130;8.244;2023-02-19T01:16:03;101478.41;;;4.42;79.61
10167;BME280;62970;53.130;8.244;2023-02-19T01:18:35;101493.00;;;4.40;79.57
10167;BME280;62970;53.130;8.244;2023-02-19T01:21:06;101493.81;;;4.36;79.53
10167;BME280;62970;53.130;8.244;2023-02-19T01:23:36;101492.91;;;4.33;79.27
10167;BME280;62970;53.130;8.244;2023-02-19T01:26:08;101487.72;;;4.31;79.71
10167;BME280;62970;53.130;8.244;2023-02-19T01:28:39;101493.72;;;4.29;79.93
10167;BME280;62970;53.130;8.244;2023-02-19T01:31:18;101498.00;;;4.27;80.50
10167;BME280;62970;53.130;8.244;2023-02-19T01:33:52;101498.81;;;4.24;80.06
10167;BME280;62970;53.130;8.244;2023-02-19T01:36:22;101497.09;;;4.23;79.93
10167;BME280;62970;53.130;8.244;2023-02-19T01:38:55;101497.06;;;4.22;80.01
10167;BME280;62970;53.130;8.244;2023-02-19T01:41:25;101496.22;;;4.23;80.09
10167;BME280;62970;53.130;8.244;2023-02-19T01:45:10;101491.91;;;4.22;80.60
10167;BME280;62970;53.130;8.244;2023-02-19T01:46:58;101494.47;;;4.20;80.04
10167;BME280;62970;53.130;8.244;2023-02-19T01:49:33;101493.56;;;4.17;80.72
10167;BME280;62970;53.130;8.244;2023-02-19T01:52:11;101489.25;;;4.16;80.90
10167;BME280;62970;53.130;8.244;2023-02-19T01:54:44;101485.78;;;4.15;80.27
10167;BME280;62970;53.130;8.244;2023-02-19T01:57:18;101484.06;;;4.16;80.72
10167;BME280;62970;53.130;8.244;2023-02-19T01:59:51;101484.06;;;4.14;80.58
10167;BME280;62970;53.130;8.244;2023-02-19T02:02:23;101488.38;;;4.15;81.06
10167;BME280;62970;53.130;8.244;2023-02-19T02:04:56;101484.06;;;4.16;81.03
10167;BME280;62970;53.130;8.244;2023-02-19T02:07:27;101484.09;;;4.17;81.14
10167;BME280;62970;53.130;8.244;2023-02-19T02:10:08;101477.22;;;4.18;81.22
10167;BME280;62970;53.130;8.244;2023-02-19T02:12:51;101484.91;;;4.15;81.14
10167;BME280;62970;53.130;8.244;2023-02-19T02:15:28;101493.50;;;4.12;80.90
10167;BME280;62970;53.130;8.244;2023-02-19T02:18:10;101485.69;;;4.09;81.73
10167;BME280;62970;53.130;8.244;2023-02-19T02:21:07;101491.72;;;4.08;81.75
10167;BME280;62970;53.130;8.244;2023-02-19T02:23:50;101492.50;;;4.02;80.94
10167;BME280;62970;53.130;8.244;2023-02-19T02:26:34;101498.44;;;3.98;81.04
10167;BME280;62970;53.130;8.244;2023-02-19T02:30:10;101491.50;;;3.94;81.80
10167;BME280;62970;53.130;8.244;2023-02-19T02:32:53;101488.03;;;3.92;81.57
10167;BME280;62970;53.130;8.244;2023-02-19T02:35:31;101487.16;;;3.90;81.09
10167;BME280;62970;53.130;8.244;2023-02-19T02:38:10;101497.41;;;3.87;81.29
10167;BME280;62970;53.130;8.244;2023-02-19T02:40:44;101500.81;;;3.83;80.92
10167;BME280;62970;53.130;8.244;2023-02-19T02:43:16;101512.78;;;3.80;81.17
10167;BME280;62970;53.130;8.244;2023-02-19T02:45:48;101504.13;;;3.76;81.55
10167;BME280;62970;53.130;8.244;2023-02-19T02:48:29;101510.09;;;3.72;81.21
10167;BME280;62970;53.130;8.244;2023-02-19T02:51:10;101513.47;;;3.69;81.55
10167;BME280;62970;53.130;8.244;2023-02-19T02:53:48;101525.47;;;3.67;81.61
10167;BME280;62970;53.130;8.244;2023-02-19T02:56:33;101521.16;;;3.66;81.41
10167;BME280;62970;53.130;8.244;2023-02-19T02:59:08;101534.91;;;3.65;81.70
10167;BME280;62970;53.130;8.244;2023-02-19T03:01:45;101531.44;;;3.63;81.85
10167;BME280;62970;53.130;8.244;2023-02-19T03:04:49;101533.13;;;3.61;81.60
10167;BME280;62970;53.130;8.244;2023-02-19T03:07:37;101538.19;;;3.57;81.71
10167;BME280;62970;53.130;8.244;2023-02-19T03:10:13;101539.94;;;3.58;81.61
10167;BME280;62970;53.130;8.244;2023-02-19T03:12:45;101543.38;;;3.58;81.87
10167;BME280;62970;53.130;8.244;2023-02-19T03:15:37;101546.81;;;3.57;81.88
10167;BME280;62970;53.130;8.244;2023-02-19T03:18:27;101556.25;;;3.57;82.12
10167;BME280;62970;53.130;8.244;2023-02-19T03:21:13;101558.84;;;3.57;81.94
10167;BME280;62970;53.130;8.244;2023-02-19T03:23:45;101565.72;;;3.58;81.73
10167;BME280;62970;53.130;8.244;2023-02-19T03:26:28;101569.13;;;3.55;81.34
10167;BME280;62970;53.130;8.244;2023-02-19T03:29:01;101572.50;;;3.53;81.60
10167;BME280;62970;53.130;8.244;2023-02-19T03:31:46;101567.34;;;3.51;81.50
10167;BME280;62970;53.130;8.244;2023-02-19T03:34:24;101575.91;;;3.50;81.84
10167;BME280;62970;53.130;8.244;2023-02-19T03:36:59;101581.06;;;3.50;82.06
10167;BME280;62970;53.130;8.244;2023-02-19T03:39:30;101581.09;;;3.52;82.03
10167;BME280;62970;53.130;8.244;2023-02-19T03:42:18;101581.94;;;3.51;82.26
10167;BME280;62970;53.130;8.244;2023-02-19T03:45:17;101594.00;;;3.52;82.56
10167;BME280;62970;53.130;8.244;2023-02-19T03:48:07;101597.41;;;3.51;82.52
10167;BME280;62970;53.130;8.244;2023-02-19T03:51:03;101610.34;;;3.52;82.85
10167;BME280;62970;53.130;8.244;2023-02-19T03:53:42;101618.09;;;3.54;82.27
10167;BME280;62970;53.130;8.244;2023-02-19T03:56:23;101625.84;;;3.54;81.91
10167;BME280;62970;53.130;8.244;2023-02-19T03:58:59;101629.25;;;3.53;81.83
10167;BME280;62970;53.130;8.244;2023-02-19T04:01:33;101635.22;;;3.50;82.16
10167;BME280;62970;53.130;8.244;2023-02-19T04:04:12;101644.56;;;3.43;81.85
10167;BME280;62970;53.130;8.244;2023-02-19T04:06:52;101642.72;;;3.38;81.79
10167;BME280;62970;53.130;8.244;2023-02-19T04:09:26;101644.41;;;3.36;82.20
10167;BME280;62970;53.130;8.244;2023-02-19T04:12:00;101647.00;;;3.37;82.14
10167;BME280;62970;53.130;8.244;2023-02-19T04:14:34;101654.78;;;3.39;82.07
10167;BME280;62970;53.130;8.244;2023-02-19T04:17:13;101665.13;;;3.40;82.73
10167;BME280;62970;53.130;8.244;2023-02-19T04:19:49;101664.31;;;3.43;82.73
10167;BME280;62970;53.130;8.244;2023-02-19T04:22:24;101668.63;;;3.44;82.80
10167;BME280;62970;53.130;8.244;2023-02-19T04:24:56;101680.75;;;3.48;82.44
10167;BME280;62970;53.130;8.244;2023-02-19T04:27:28;101681.63;;;3.50;82.50
10167;BME280;62970;53.130;8.244;2023-02-19T04:29:57;101679.97;;;3.52;82.63
10167;BME280;62970;53.130;8.244;2023-02-19T04:32:28;101693.72;;;3.53;82.57
10167;BME280;62970;53.130;8.244;2023-02-19T04:34:57;101699.75;;;3.53;82.13
10167;BME280;62970;53.130;8.244;2023-02-19T04:37:31;101697.97;;;3.51;82.37
10167;BME280;62970;53.130;8.244;2023-02-19T04:40:02;101706.59;;;3.51;82.37
10167;BME280;62970;53.130;8.244;2023-02-19T04:42:33;101706.59;;;3.51;82.65
10167;BME280;62970;53.130;8.244;2023-02-19T04:45:03;101710.91;;;3.52;82.27
10167;BME280;62970;53.130;8.244;2023-02-19T04:47:40;101711.75;;;3.51;82.66
10167;BME280;62970;53.130;8.244;2023-02-19T04:50:14;101714.28;;;3.50;81.97
10167;BME280;62970;53.130;8.244;2023-02-19T04:52:46;101710.75;;;3.44;81.88
10167;BME280;62970;53.130;8.244;2023-02-19T04:55:16;101714.19;;;3.43;81.98
10167;BME280;62970;53.130;8.244;2023-02-19T04:57:47;101727.97;;;3.45;82.11
10167;BME280;62970;53.130;8.244;2023-02-19T05:00:17;101740.91;;;3.47;82.10
10167;BME280;62970;53.130;8.244;2023-02-19T05:02:48;101742.59;;;3.47;82.07
10167;BME280;62970;53.130;8.244;2023-02-19T05:05:19;101749.47;;;3.46;82.25
10167;BME280;62970;53.130;8.244;2023-02-19T05:07:52;101763.22;;;3.47;82.72
10167;BME280;62970;53.130;8.244;2023-02-19T05:10:22;101768.47;;;3.50;82.52
10167;BME280;62970;53.130;8.244;2023-02-19T05:12:53;101763.31;;;3.51;82.54
10167;BME280;62970;53.130;8.244;2023-02-19T05:15:22;101771.94;;;3.52;82.61
10167;BME280;62970;53.130;8.244;2023-02-19T05:17:51;101779.72;;;3.53;82.55
10167;BME280;62970;53.130;8.244;2023-02-19T05:20:24;101778.91;;;3.56;82.52
10167;BME280;62970;53.130;8.244;2023-02-19T05:22:57;101784.94;;;3.56;82.83
10167;BME280;62970;53.130;8.244;2023-02-19T05:25:29;101781.47;;;3.56;82.33
10167;BME280;62970;53.130;8.244;2023-02-19T05:27:59;101784.94;;;3.56;82.35
10167;BME280;62970;53.130;8.244;2023-02-19T05:30:41;101799.47;;;3.53;82.21
10167;BME280;62970;53.130;8.244;2023-02-19T05:33:13;101802.06;;;3.54;82.13
10167;BME280;62970;53.130;8.244;2023-02-19T05:35:44;101814.13;;;3.55;82.55
10167;BME280;62970;53.130;8.244;2023-02-19T05:38:22;101818.50;;;3.58;82.76
10167;BME280;62970;53.130;8.244;2023-02-19T05:41:07;101825.34;;;3.57;83.07
10167;BME280;62970;53.130;8.244;2023-02-19T05:43:37;101819.38;;;3.58;82.57
10167;BME280;62970;53.130;8.244;2023-02-19T05:46:08;101818.44;;;3.55;82.05
10167;BME280;62970;53.130;8.244;2023-02-19T05:48:40;101820.94;;;3.52;82.13
10167;BME280;62970;53.130;8.244;2023-02-19T05:51:13;101817.44;;;3.50;82.05
10167;BME280;62970;53.130;8.244;2023-02-19T05:53:52;101821.63;;;3.44;81.93
10167;BME280;62970;53.130;8.244;2023-02-19T05:56:35;101831.84;;;3.40;82.43
10167;BME280;62970;53.130;8.244;2023-02-19T05:59:10;101840.38;;;3.37;81.58
10167;BME280;62970;53.130;8.244;2023-02-19T06:01:44;101841.22;;;3.36;81.86
10167;BME280;62970;53.130;8.244;2023-02-19T06:04:15;101848.06;;;3.34;81.61
10167;BME280;62970;53.130;8.244;2023-02-19T06:06:46;101856.69;;;3.36;81.84
10167;BME280;62970;53.130;8.244;2023-02-19T06:09:22;101867.91;;;3.38;82.48
10167;BME280;62970;53.130;8.244;2023-02-19T06:11:51;101869.66;;;3.39;82.35
10167;BME280;62970;53.130;8.244;2023-02-19T06:14:21;101872.28;;;3.41;82.66
10167;BME280;62970;53.130;8.244;2023-02-19T06:16:52;101878.31;;;3.41;82.34
10167;BME280;62970;53.130;8.244;2023-02-19T06:19:26;101891.22;;;3.43;82.61
10167;BME280;62970;53.130;8.244;2023-02-19T06:21:57;101891.25;;;3.44;82.26
10167;BME280;62970;53.130;8.244;2023-02-19T06:24:29;101899.00;;;3.44;82.91
10167;BME280;62970;53.130;8.244;2023-02-19T06:27:01;101912.81;;;3.47;82.83
10167;BME280;62970;53.130;8.244;2023-02-19T06:29:33;101919.66;;;3.46;82.25
10167;BME280;62970;53.130;8.244;2023-02-19T06:32:04;101918.75;;;3.44;82.21
10167;BME280;62970;53.130;8.244;2023-02-19T06:34:36;101929.13;;;3.45;82.26
10167;BME280;62970;53.130;8.244;2023-02-19T06:37:07;101937.72;;;3.46;82.47
10167;BME280;62970;53.130;8.244;2023-02-19T06:39:39;101939.41;;;3.44;82.78
10167;BME280;62970;53.130;8.244;2023-02-19T06:42:09;101940.31;;;3.46;82.74
10167;BME280;62970;53.130;8.244;2023-02-19T06:44:39;101944.59;;;3.45;82.63
10167;BME280;62970;53.130;8.244;2023-02-19T06:47:08;101950.63;;;3.46;82.76
10167;BME280;62970;53.130;8.244;2023-02-19T06:49:39;101955.75;;;3.44;82.65
10167;BME280;62970;53.130;8.244;2023-02-19T06:52:08;101965.97;;;3.41;82.09
10167;BME280;62970;53.130;8.244;2023-02-19T06:54:42;101975.34;;;3.38;82.55
10167;BME280;62970;53.130;8.244;2023-02-19T06:57:12;101979.56;;;3.34;81.79
10167;BME280;62970;53.130;8.244;2023-02-19T06:59:42;101981.19;;;3.31;81.36
10167;BME280;62970;53.130;8.244;2023-02-19T07:02:12;101988.81;;;3.26;81.45
10167;BME280;62970;53.130;8.244;2023-02-19T07:04:46;101992.28;;;3.28;82.15
10167;BME280;62970;53.130;8.244;2023-02-19T07:07:15;101997.44;;;3.28;81.96
10167;BME280;62970;53.130;8.244;2023-02-19T07:09:49;102002.69;;;3.31;82.85
10167;BME280;62970;53.130;8.244;2023-02-19T07:12:18;102002.78;;;3.36;82.98
10167;BME280;62970;53.130;8.244;2023-02-19T07:14:53;102016.72;;;3.42;83.52
10167;BME280;62970;53.130;8.244;2023-02-19T07:17:24;102013.47;;;3.50;83.68
10167;BME280;62970;53.130;8.244;2023-02-19T07:19:54;102012.75;;;3.55;83.43
10167;BME280;62970;53.130;8.244;2023-02-19T07:22:24;102015.50;;;3.63;84.05
10167;BME280;62970;53.130;8.244;2023-02-19T07:24:58;102026.84;;;3.69;84.36
10167;BME280;62970;53.130;8.244;2023-02-19T07:27:27;102031.34;;;3.78;84.39
10167;BME280;62970;53.130;8.244;2023-02-19T07:29:57;102036.66;;;3.84;84.22
10167;BME280;62970;53.130;8.244;2023-02-19T07:32:27;102042.81;;;3.89;83.83
10167;BME280;62970;53.130;8.244;2023-02-19T07:35:00;102049.78;;;3.93;83.81
10167;BME280;62970;53.130;8.244;2023-02-19T07:37:32;102058.50;;;3.98;83.70
10167;BME280;62970;53.130;8.244;2023-02-19T07:40:10;102045.63;;;4.00;83.78
10167;BME280;62970;53.130;8.244;2023-02-19T07:42:40;102040.56;;;4.03;83.56
10167;BME280;62970;53.130;8.244;2023-02-19T07:45:09;102048.41;;;4.07;83.71
10167;BME280;62970;53.130;8.244;2023-02-19T07:47:43;102057.09;;;4.11;83.92
10167;BME280;62970;53.130;8.244;2023-02-19T07:50:12;102055.44;;;4.15;83.76
10167;BME280;62970;53.130;8.244;2023-02-19T07:52:42;102065.88;;;4.19;84.18
10167;BME280;62970;53.130;8.244;2023-02-19T07:55:20;102064.25;;;4.23;84.58
10167;BME280;62970;53.130;8.244;2023-02-19T07:57:51;102058.34;;;4.28;84.06
10167;BME280;62970;53.130;8.244;2023-02-19T08:00:22;102061.03;;;4.33;84.24
10167;BME280;62970;53.130;8.244;2023-02-19T08:02:52;102058.59;;;4.39;84.31
10167;BME280;62970;53.130;8.244;2023-02-19T08:05:33;102060.47;;;4.46;84.89
10167;BME280;62970;53.130;8.244;2023-02-19T08:08:06;102058.88;;;4.53;84.62
10167;BME280;62970;53.130;8.244;2023-02-19T08:10:39;102059.91;;;4.61;85.29
10167;BME280;62970;53.130;8.244;2023-02-19T08:13:27;102062.66;;;4.68;84.89
10167;BME280;62970;53.130;8.244;2023-02-19T08:16:11;102075.69;;;4.73;85.29
10167;BME280;62970;53.130;8.244;2023-02-19T08:18:43;102081.81;;;4.78;84.77
10167;BME280;62970;53.130;8.244;2023-02-19T08:21:13;102083.66;;;4.82;84.48
10167;BME280;62970;53.130;8.244;2023-02-19T08:23:48;102081.13;;;4.85;84.81
10167;BME280;62970;53.130;8.244;2023-02-19T08:26:23;102079.44;;;4.87;85.00
10167;BME280;62970;53.130;8.244;2023-02-19T08:28:53;102080.31;;;4.88;84.70
10167;BME280;62970;53.130;8.244;2023-02-19T08:31:24;102082.84;;;4.85;84.16
10167;BME280;62970;53.130;8.244;2023-02-19T08:33:53;102086.13;;;4.79;83.12
10167;BME280;62970;53.130;8.244;2023-02-19T08:36:23;102086.81;;;4.70;82.66
10167;BME280;62970;53.130;8.244;2023-02-19T08:38:52;102083.13;;;4.59;82.04
10167;BME280;62970;53.130;8.244;2023-02-19T08:41:27;102094.09;;;4.49;82.49
10167;BME280;62970;53.130;8.244;2023-02-19T08:43:56;102112.88;;;4.42;81.69
10167;BME280;62970;53.130;8.244;2023-02-19T08:46:27;102110.97;;;4.33;81.45
10167;BME280;62970;53.130;8.244;2023-02-19T08:48:57;102114.25;;;4.26;81.85
10167;BME280;62970;53.130;8.244;2023-02-19T08:51:27;102118.53;;;4.26;82.77
10167;BME280;62970;53.130;8.244;2023-02-19T08:53:56;102127.22;;;4.29;82.90
10167;BME280;62970;53.130;8.244;2023-02-19T08:56:30;102134.09;;;4.29;83.50
10167;BME280;62970;53.130;8.244;2023-02-19T08:59:00;102134.94;;;4.28;82.82
10167;BME280;62970;53.130;8.244;2023-02-19T09:01:29;102134.88;;;4.25;82.95
10167;BME280;62970;53.130;8.244;2023-02-19T09:03:58;102141.75;;;4.24;82.72
10167;BME280;62970;53.130;8.244;2023-02-19T09:06:30;102147.81;;;4.26;83.01
10167;BME280;62970;53.130;8.244;2023-02-19T09:08:59;102146.97;;;4.27;83.33
10167;BME280;62970;53.130;8.244;2023-02-19T09:11:31;102150.50;;;4.31;83.62
10167;BME280;62970;53.130;8.244;2023-02-19T09:14:01;102160.91;;;4.34;83.32
10167;BME280;62970;53.130;8.244;2023-02-19T09:16:32;102170.41;;;4.35;82.99
10167;BME280;62970;53.130;8.244;2023-02-19T09:19:02;102179.91;;;4.36;83.25
10167;BME280;62970;53.130;8.244;2023-02-19T09:21:31;102190.31;;;4.39;83.45
10167;BME280;62970;53.130;8.244;2023-02-19T09:24:04;102187.06;;;4.48;84.30
10167;BME280;62970;53.130;8.244;2023-02-19T09:26:38;102202.72;;;4.54;84.23
10167;BME280;62970;53.130;8.244;2023-02-19T09:29:09;102216.69;;;4.62;84.39
10167;BME280;62970;53.130;8.244;2023-02-19T09:31:39;102221.94;;;4.65;83.95
10167;BME280;62970;53.130;8.244;2023-02-19T09:34:08;102227.13;;;4.66;84.49
10167;BME280;62970;53.130;8.244;2023-02-19T09:36:38;102222.88;;;4.68;84.52
10167;BME280;62970;53.130;8.244;2023-02-19T09:39:09;102224.63;;;4.69;84.32
10167;BME280;62970;53.130;8.244;2023-02-19T09:41:45;102231.53;;;4.70;84.41
10167;BME280;62970;53.130;8.244;2023-02-19T09:44:22;102241.09;;;4.74;84.37
10167;BME280;62970;53.130;8.244;2023-02-19T09:47:00;102247.25;;;4.80;84.70
10167;BME280;62970;53.130;8.244;2023-02-19T09:49:34;102251.69;;;4.84;84.62
10167;BME280;62970;53.130;8.244;2023-02-19T09:52:11;102248.41;;;4.91;84.97
10167;BME280;62970;53.130;8.244;2023-02-19T09:54:44;102259.00;;;5.01;84.92
10167;BME280;62970;53.130;8.244;2023-02-19T09:57:21;102268.59;;;5.07;84.75
10167;BME280;62970;53.130;8.244;2023-02-19T09:59:52;102272.81;;;5.03;83.89
10167;BME280;62970;53.130;8.244;2023-02-19T10:02:28;102275.41;;;5.03;84.75
10167;BME280;62970;53.130;8.244;2023-02-19T10:04:58;102267.81;;;5.11;84.94
10167;BME280;62970;53.130;8.244;2023-02-19T10:07:38;102276.63;;;5.19;85.35
10167;BME280;62970;53.130;8.244;2023-02-19T10:10:27;102280.16;;;5.23;85.34
10167;BME280;62970;53.130;8.244;2023-02-19T10:13:13;102291.31;;;5.20;84.78
10167;BME280;62970;53.130;8.244;2023-02-19T10:15:49;102281.69;;;5.15;84.21
10167;BME280;62970;53.130;8.244;2023-02-19T10:18:24;102277.38;;;5.14;84.35
10167;BME280;62970;53.130;8.244;2023-02-19T10:20:56;102271.28;;;5.12;83.62
10167;BME280;62970;53.130;8.244;2023-02-19T10:23:27;102273.03;;;5.13;84.45
10167;BME280;62970;53.130;8.244;2023-02-19T10:26:00;102274.94;;;5.21;84.96
10167;BME280;62970;53.130;8.244;2023-02-19T10:28:42;102271.69;;;5.30;85.23
10167;BME280;62970;53.130;8.244;2023-02-19T10:31:16;102271.00;;;5.37;85.05
10167;BME280;62970;53.130;8.244;2023-02-19T10:33:50;102267.72;;;5.44;85.36
10167;BME280;62970;53.130;8.244;2023-02-19T10:36:27;102282.53;;;5.51;85.00
10167;BME280;62970;53.130;8.244;2023-02-19T10:38:57;102288.81;;;5.62;85.52
10167;BME280;62970;53.130;8.244;2023-02-19T10:41:32;102297.66;;;5.74;85.91
10167;BME280;62970;53.130;8.244;2023-02-19T10:44:10;102311.69;;;5.85;85.56
10167;BME280;62970;53.130;8.244;2023-02-19T10:46:44;102322.97;;;5.88;85.13
10167;BME280;62970;53.130;8.244;2023-02-19T10:49:23;102329.00;;;5.87;85.15
10167;BME280;62970;53.130;8.244;2023-02-19T10:51:58;102331.56;;;5.86;84.59
10167;BME280;62970;53.130;8.244;2023-02-19T10:54:33;102343.56;;;5.82;84.03
10167;BME280;62970;53.130;8.244;2023-02-19T10:57:30;102336.66;;;5.81;84.95
10167;BME280;62970;53.130;8.244;2023-02-19T11:00:20;102334.97;;;5.83;84.71
10167;BME280;62970;53.130;8.244;2023-02-19T11:03:19;102347.19;;;5.90;84.88
10167;BME280;62970;53.130;8.244;2023-02-19T11:06:00;102350.69;;;5.92;84.35
10167;BME280;62970;53.130;8.244;2023-02-19T11:08:49;102345.47;;;5.91;84.22
10167;BME280;62970;53.130;8.244;2023-02-19T11:11:34;102343.75;;;5.91;84.89
10167;BME280;62970;53.130;8.244;2023-02-19T11:14:14;102344.66;;;5.93;84.12
10167;BME280;62970;53.130;8.244;2023-02-19T11:16:50;102345.53;;;5.94;83.98
10167;BME280;62970;53.130;8.244;2023-02-19T11:19:29;102343.88;;;5.97;84.35
10167;BME280;62970;53.130;8.244;2023-02-19T11:22:16;102333.66;;;6.03;84.13
10167;BME280;62970;53.130;8.244;2023-02-19T11:24:48;102339.91;;;6.15;84.87
10167;BME280;62970;53.130;8.244;2023-02-19T11:27:23;102340.09;;;6.24;84.80
10167;BME280;62970;53.130;8.244;2023-02-19T11:29:54;102335.97;;;6.35;84.43
10167;BME280;62970;53.130;8.244;2023-02-19T11:32:32;102329.19;;;6.42;84.37
10167;BME280;62970;53.130;8.244;2023-02-19T11:35:19;102330.16;;;6.48;85.28
10167;BME280;62970;53.130;8.244;2023-02-19T11:37:56;102334.63;;;6.55;84.64
10167;BME280;62970;53.130;8.244;2023-02-19T11:40:37;102330.34;;;6.59;84.54
10167;BME280;62970;53.130;8.244;2023-02-19T11:43:35;102329.53;;;6.61;84.70
10167;BME280;62970;53.130;8.244;2023-02-19T11:46:15;102325.22;;;6.62;83.95
10167;BME280;62970;53.130;8.244;2023-02-19T11:48:52;102329.69;;;6.71;84.56
10167;BME280;62970;53.130;8.244;2023-02-19T11:51:48;102331.53;;;6.78;84.64
10167;BME280;62970;53.130;8.244;2023-02-19T11:54:49;102329.91;;;6.84;84.78
10167;BME280;62970;53.130;8.244;2023-02-19T11:57:37;102327.38;;;6.87;84.34
10167;BME280;62970;53.130;8.244;2023-02-19T12:00:22;102321.50;;;6.97;84.11
10167;BME280;62970;53.130;8.244;2023-02-19T12:06:21;102328.19;;;7.39;85.25
10167;BME280;62970;53.130;8.244;2023-02-19T12:09:12;102343.13;;;7.54;85.15
10167;BME280;62970;53.130;8.244;2023-02-19T12:12:10;102352.84;;;7.67;84.59
10167;BME280;62970;53.130;8.244;2023-02-19T12:21:19;102344.31;;;7.79;82.56
10167;BME280;62970;53.130;8.244;2023-02-19T12:24:42;102344.25;;;7.73;81.96
10167;BME280;62970;53.130;8.244;2023-02-19T12:27:32;102338.91;;;7.60;80.47
10167;BME280;62970;53.130;8.244;2023-02-19T12:30:29;102329.25;;;7.50;80.41
10167;BME280;62970;53.130;8.244;2023-02-19T12:36:26;102321.88;;;7.20;78.98
10167;BME280;62970;53.130;8.244;2023-02-19T12:39:10;102322.50;;;7.07;78.64
10167;BME280;62970;53.130;8.244;2023-02-19T12:41:48;102319.72;;;6.95;78.40
10167;BME280;62970;53.130;8.244;2023-02-19T12:44:24;102323.84;;;6.82;78.77
10167;BME280;62970;53.130;8.244;2023-02-19T12:46:59;102322.81;;;6.73;78.27
10167;BME280;62970;53.130;8.244;2023-02-19T12:49:34;102324.44;;;6.66;78.69
10167;BME280;62970;53.130;8.244;2023-02-19T12:52:13;102333.06;;;6.65;79.07
10167;BME280;62970;53.130;8.244;2023-02-19T12:54:48;102345.22;;;6.69;78.83
10167;BME280;62970;53.130;8.244;2023-02-19T12:57:23;102348.75;;;6.74;79.53
10167;BME280;62970;53.130;8.244;2023-02-19T12:59:58;102347.19;;;6.84;79.56
10167;BME280;62970;53.130;8.244;2023-02-19T13:02:37;102339.59;;;6.94;80.23
10167;BME280;62970;53.130;8.244;2023-02-19T13:05:18;102345.03;;;7.10;80.63
10167;BME280;62970;53.130;8.244;2023-02-19T13:08:01;102342.72;;;7.26;80.77
10167;BME280;62970;53.130;8.244;2023-02-19T13:10:37;102342.13;;;7.44;80.26
10167;BME280;62970;53.130;8.244;2023-02-19T13:13:14;102339.72;;;7.58;79.44
10167;BME280;62970;53.130;8.244;2023-02-19T13:15:49;102337.25;;;7.67;78.57
10167;BME280;62970;53.130;8.244;2023-02-19T13:18:24;102325.22;;;7.74;78.63
10167;BME280;62970;53.130;8.244;2023-02-19T13:20:56;102333.06;;;7.78;77.77
10167;BME280;62970;53.130;8.244;2023-02-19T13:23:33;102320.97;;;7.80;77.67
10167;BME280;62970;53.130;8.244;2023-02-19T13:26:37;102328.78;;;7.82;78.25
10167;BME280;62970;53.130;8.244;2023-02-19T13:29:25;102341.78;;;7.83;78.22
10167;BME280;62970;53.130;8.244;2023-02-19T13:32:32;102346.16;;;7.86;78.02
10167;BME280;62970;53.130;8.244;2023-02-19T13:35:26;102352.22;;;7.88;78.14
10167;BME280;62970;53.130;8.244;2023-02-19T13:38:01;102347.94;;;7.91;77.25
10167;BME280;62970;53.130;8.244;2023-02-19T13:40:38;102350.59;;;7.96;77.75
10167;BME280;62970;53.130;8.244;2023-02-19T13:43:23;102355.81;;;7.98;77.74
10167;BME280;62970;53.130;8.244;2023-02-19T13:45:57;102363.59;;;7.98;76.63
10167;BME280;62970;53.130;8.244;2023-02-19T13:48:30;102362.72;;;7.95;76.58
10167;BME280;62970;53.130;8.244;2023-02-19T13:51:43;102361.84;;;7.95;77.35
10167;BME280;62970;53.130;8.244;2023-02-19T13:54:26;102367.03;;;7.93;77.23
10167;BME280;62970;53.130;8.244;2023-02-19T13:57:27;102366.13;;;7.90;77.52
10167;BME280;62970;53.130;8.244;2023-02-19T13:59:58;102373.06;;;7.91;76.17